Grant Airport

CSX5 · Quebeque, Canadá

História da METAR CSX5 · Grant Airport

Abaixo você vê METARs dos últimos dias. Selecione um ano para navegar pelos METARs mais antigos, a partir do ano 2007.

14 de julho de 2024

Hora Código Clima Temp. Visibilidade Tecto Vento METAR/SPECI
02:00
V
22 °C 9 mi - 240° 240° 10 kt METAR CYHU 140600Z AUTO 24010KT 9SM CLR 22/19 A3000 RMK SLP161 DENSITY ALT 900FT
01:00
V
22 °C 9 mi - 210° 210° 5 kt METAR CYHU 140500Z AUTO 21005KT 9SM CLR 22/19 A3001 RMK SLP163 DENSITY ALT 900FT
00:00
V
22 °C 9 mi - 240° 240° 5 kt METAR CYHU 140400Z AUTO 24005KT 9SM CLR 22/18 A3002 RMK SLP167 DENSITY ALT 900FT

13 de julho de 2024

Hora Código Clima Temp. Visibilidade Tecto Vento METAR/SPECI
23:00
V
24 °C 9 mi - 240° 240° 4 kt METAR CYHU 140300Z AUTO 24004KT 9SM CLR 24/17 A3002 RMK SLP168 DENSITY ALT 1100FT
22:00
V
25 °C 9 mi - 250° 250° 7 kt METAR CYHU 140200Z AUTO 25007KT 9SM CLR 25/16 A3002 RMK SLP167 DENSITY ALT 1300FT
21:00
V
26 °C 9 mi - 260° 260° 8 kt METAR CYHU 140100Z AUTO 26008KT 9SM CLR 26/17 A3002 RMK SLP167 DENSITY ALT 1300FT
20:00
V
27 °C 9 mi - 270° 270° 12 kt METAR CYHU 140000Z AUTO 27012KT 9SM CLR 27/18 A3002 RMK SLP166 DENSITY ALT 1500FT
19:00
V
28 °C 9 mi - 260° 260° 11 - 17 kt METAR CYHU 132300Z AUTO 26011G17KT 9SM SCT050 28/19 A3002 RMK SLP166 DENSITY ALT 1600FT
18:00
V
28 °C 9 mi - 240° 240° 10 - 15 kt METAR CYHU 132200Z AUTO 24010G15KT 9SM CLR 28/20 A3001 RMK SLP163 DENSITY ALT 1600FT
17:00
V
29 °C 9 mi - 250° 250° 9 - 17 kt METAR CYHU 132100Z AUTO 25009G17KT 9SM FEW140 29/18 A3002 RMK LTNG DIST E SLP167 DENSITY ALT 1600FT
16:00
V
29 °C 9 mi - 280° 280° 13 - 18 kt METAR CYHU 132000Z AUTO 28013G18KT 9SM FEW047 29/19 A3003 RMK SLP171 DENSITY ALT 1600FT
15:00
V
28 °C 9 mi - 260° 260° 10 - 18 kt METAR CYHU 131900Z AUTO 26010G18KT 230V300 9SM FEW047 28/20 A3004 RMK LTNG DIST NW SLP173 DENSITY ALT 1500FT
14:00
V
28 °C 9 mi - 250° 250° 11 - 20 kt METAR CYHU 131800Z AUTO 25011G20KT 9SM FEW043 28/19 A3005 RMK SLP176 DENSITY ALT 1500FT
13:00
V
27 °C 9 mi - 250° 250° 10 - 16 kt METAR CYHU 131700Z AUTO 25010G16KT 9SM CLR 27/20 A3007 RMK SLP185 DENSITY ALT 1400FT
12:00
V
27 °C 9 mi - 240° 240° 9 kt METAR CYHU 131600Z AUTO 24009KT 9SM CLR 27/20 A3008 RMK SLP189 DENSITY ALT 1300FT
11:00
V
26 °C 9 mi - 290° 290° 4 kt METAR CYHU 131500Z AUTO 29004KT 250V340 9SM SCT140 26/19 A3009 RMK SLP191 DENSITY ALT 1300FT
10:00
V
25 °C 9 mi 7.600 ft 240° 240° 6 kt METAR CYHU 131400Z AUTO 24006KT 170V340 9SM BKN076 BKN093 25/20 A3009 RMK SLP192 DENSITY ALT 1100FT
09:00
V
23 °C 9 mi 7.100 ft 240° 240° 7 kt METAR CYHU 131300Z AUTO 24007KT 9SM BKN071 BKN084 BKN110 23/19 A3010 RMK SLP196 DENSITY ALT 900FT
08:00
V
23 °C 9 mi 10.000 ft 220° 220° 8 kt METAR CYHU 131200Z AUTO 22008KT 9SM FEW076 BKN100 BKN120 23/18 A3010 RMK SLP194 DENSITY ALT 900FT
07:00
V
22 °C 9 mi 11.000 ft 220° 220° 6 kt METAR CYHU 131100Z AUTO 22006KT 9SM SCT076 SCT090 OVC110 22/19 A3010 RMK SLP195 DENSITY ALT 800FT
06:00
V
21 °C 9 mi - 210° 210° 4 kt METAR CYHU 131000Z AUTO 21004KT 9SM CLR 21/20 A3010 RMK SLP193 DENSITY ALT 600FT
05:00
V
21 °C 9 mi - 200° 200° 5 kt METAR CYHU 130900Z AUTO 20005KT 9SM CLR 21/20 A3009 RMK SLP191 DENSITY ALT 700FT
04:00
V
22 °C 9 mi - 190° 190° 5 kt METAR CYHU 130800Z AUTO 19005KT 9SM FEW110 22/20 A3008 RMK SLP188 DENSITY ALT 700FT
03:00
V
22 °C 9 mi 10.000 ft 200° 200° 5 kt METAR CYHU 130700Z AUTO 20005KT 9SM BKN100 22/21 A3008 RMK SLP187 DENSITY ALT 800FT
02:00
V
22 °C 9 mi - 210° 210° 4 kt METAR CYHU 130600Z AUTO 21004KT 9SM FEW096 22/21 A3008 RMK SLP189 DENSITY ALT 800FT
01:00
V
22 °C 9 mi 9.600 ft 150° 150° 3 kt METAR CYHU 130500Z AUTO 15003KT 9SM OVC096 22/21 A3010 RMK SLP196 DENSITY ALT 800FT
00:00
V
23 °C 9 mi 9.600 ft 230° 230° 5 kt METAR CYHU 130400Z AUTO 23005KT 9SM BKN096 23/21 A3011 RMK SLP199 DENSITY ALT 800FT

12 de julho de 2024

Hora Código Clima Temp. Visibilidade Tecto Vento METAR/SPECI
23:00
V
24 °C 9 mi 21.000 ft 220° 220° 6 kt METAR CYHU 130300Z AUTO 22006KT 9SM BKN210 24/21 A3011 RMK SLP199 DENSITY ALT 900FT
22:00
V
24 °C 9 mi 22.000 ft 210° 210° 6 kt METAR CYHU 130200Z AUTO 21006KT 9SM BKN220 24/21 A3010 RMK SLP195 DENSITY ALT 1000FT
21:00
V
25 °C 9 mi 9.100 ft 210° 210° 7 kt METAR CYHU 130100Z AUTO 21007KT 9SM BKN091 25/21 A3009 RMK SLP190 DENSITY ALT 1100FT
20:00
M
26 °C 9 mi 2.900 ft 220° 220° 8 kt METAR CYHU 130000Z AUTO 22008KT 9SM BKN029 OVC091 26/20 A3008 RMK SLP188 DENSITY ALT 1300FT
19:00
V
26 °C 9 mi 7.600 ft 190° 190° 8 kt METAR CYHU 122300Z AUTO 19008KT 9SM SCT031 BKN076 OVC092 26/20 A3008 RMK SLP187 DENSITY ALT 1300FT
18:00
V
27 °C 9 mi - 240° 240° 10 - 15 kt METAR CYHU 122200Z AUTO 24010G15KT 9SM FEW091 27/21 A3008 RMK SLP187 DENSITY ALT 1400FT
17:00
V
27 °C 9 mi 7.600 ft 240° 240° 8 kt METAR CYHU 122100Z AUTO 24008KT 180V260 9SM BKN076 27/20 A3008 RMK SLP188 DENSITY ALT 1400FT
16:00
V
27 °C 9 mi - 200° 200° 9 kt METAR CYHU 122000Z AUTO 20009KT 9SM FEW081 27/20 A3010 RMK SLP195 DENSITY ALT 1300FT
15:00
V
27 °C 9 mi 7.100 ft 210° 210° 7 kt METAR CYHU 121900Z AUTO 21007KT 9SM FEW036 OVC071 27/19 A3010 RMK SLP196 DENSITY ALT 1300FT
14:00
V
26 °C 9 mi 7.100 ft 210° 210° 7 kt METAR CYHU 121800Z AUTO 21007KT 190V290 9SM FEW032 BKN071 26/20 A3011 RMK SLP198 DENSITY ALT 1200FT
13:00
V
25 °C 9 mi 4.900 ft Var Var 2 kt METAR CYHU 121700Z AUTO VRB02KT 9SM SCT036 BKN049 25/19 A3012 RMK SLP200 DENSITY ALT 1100FT
12:00
V
25 °C 9 mi 9.600 ft Var Var 2 kt METAR CYHU 121600Z AUTO VRB02KT 9SM FEW024 OVC096 25/19 A3013 RMK SLP204 DENSITY ALT 1000FT
11:00
V
23 °C 9 mi 4.600 ft 240° 240° 6 kt METAR CYHU 121500Z AUTO 24006KT 9SM SCT035 BKN046 OVC060 23/19 A3013 RMK SLP206 DENSITY ALT 900FT
10:00
V
23 °C 9 mi 5.500 ft 240° 240° 4 kt METAR CYHU 121400Z AUTO 24004KT 9SM FEW042 BKN055 OVC095 23/19 A3013 RMK SLP206 DENSITY ALT 900FT
09:00
V
22 °C 9 mi 9.100 ft Var Var 2 kt METAR CYHU 121300Z AUTO VRB02KT 9SM SCT040 OVC091 22/19 A3012 RMK SLP202 DENSITY ALT 800FT
08:00
V
22 °C 9 mi 9.600 ft Var Var 3 kt METAR CYHU 121200Z AUTO VRB03KT 9SM FEW031 OVC096 22/19 A3012 RMK SLP200 DENSITY ALT 700FT
07:00
M
21 °C 9 mi 2.500 ft Var Var 2 kt METAR CYHU 121100Z AUTO VRB02KT 9SM BKN025 BKN076 OVC094 21/18 A3010 RMK ICE MISG SLP195 DENSITY ALT 600FT
06:00
M
20 °C 9 mi 2.700 ft 240° 240° 3 kt METAR CYHU 121000Z AUTO 24003KT 9SM BKN027 OVC096 20/19 A3009 RMK SLP190 DENSITY ALT 500FT
05:31
M
20 °C 9 mi 2.700 ft Var Var 2 kt SPECI CYHU 120931Z AUTO VRB02KT 9SM SCT019 BKN027 OVC100 20/18 A3007 RMK SLP186 DENSITY ALT 500FT
05:00
M
20 °C 9 mi 1.700 ft 230° 230° 2 kt METAR CYHU 120900Z AUTO 23002KT 9SM OVC017 20/19 A3007 RMK SLP186 DENSITY ALT 500FT
04:00
M
20 °C 9 mi 1.500 ft 360° 360° 0 kt METAR CYHU 120800Z AUTO 00000KT 9SM OVC015 20/18 A3006 RMK SLP182 DENSITY ALT 500FT
03:00
M
19 °C 9 mi 1.700 ft 340° 340° 3 kt METAR CYHU 120700Z AUTO 34003KT 9SM OVC017 19/19 A3005 RMK SLP177 DENSITY ALT 500FT
02:00
M
20 °C 9 mi 1.400 ft 330° 330° 3 kt METAR CYHU 120600Z AUTO 33003KT 9SM FEW007 OVC014 20/19 A3005 RMK SLP177 DENSITY ALT 500FT
Relatar uma mudança